sensor_id;sensor_type;location;lat;lon;timestamp;temperature;humidity
11532;DHT22;5822;51.000;5.874;2022-08-24T00:01:02;21.70;99.90
11532;DHT22;5822;51.000;5.874;2022-08-24T00:03:28;21.70;99.90
11532;DHT22;5822;51.000;5.874;2022-08-24T00:05:54;21.60;99.90
11532;DHT22;5822;51.000;5.874;2022-08-24T00:08:20;21.60;99.90
11532;DHT22;5822;51.000;5.874;2022-08-24T00:10:45;21.70;99.90
11532;DHT22;5822;51.000;5.874;2022-08-24T00:13:11;21.70;99.90
11532;DHT22;5822;51.000;5.874;2022-08-24T00:15:37;21.70;99.90
11532;DHT22;5822;51.000;5.874;2022-08-24T00:18:03;21.70;99.90
11532;DHT22;5822;51.000;5.874;2022-08-24T00:20:29;21.70;99.90
11532;DHT22;5822;51.000;5.874;2022-08-24T00:22:55;21.60;99.90
11532;DHT22;5822;51.000;5.874;2022-08-24T00:25:20;21.60;99.90
11532;DHT22;5822;51.000;5.874;2022-08-24T00:27:46;21.70;99.90
11532;DHT22;5822;51.000;5.874;2022-08-24T00:30:14;21.80;99.90
11532;DHT22;5822;51.000;5.874;2022-08-24T00:32:44;21.80;99.90
11532;DHT22;5822;51.000;5.874;2022-08-24T00:35:11;21.80;99.90
11532;DHT22;5822;51.000;5.874;2022-08-24T00:37:38;21.70;99.90
11532;DHT22;5822;51.000;5.874;2022-08-24T00:40:08;21.70;99.90
11532;DHT22;5822;51.000;5.874;2022-08-24T00:42:36;21.60;99.90
11532;DHT22;5822;51.000;5.874;2022-08-24T00:45:02;21.60;99.90
11532;DHT22;5822;51.000;5.874;2022-08-24T00:47:33;21.50;99.90
11532;DHT22;5822;51.000;5.874;2022-08-24T00:50:07;21.50;99.90
11532;DHT22;5822;51.000;5.874;2022-08-24T00:52:38;21.50;99.90
11532;DHT22;5822;51.000;5.874;2022-08-24T00:55:09;21.50;99.90
11532;DHT22;5822;51.000;5.874;2022-08-24T00:57:39;21.50;99.90
11532;DHT22;5822;51.000;5.874;2022-08-24T01:00:18;21.40;99.90
11532;DHT22;5822;51.000;5.874;2022-08-24T01:02:46;21.40;99.90
11532;DHT22;5822;51.000;5.874;2022-08-24T01:05:13;21.40;99.90
11532;DHT22;5822;51.000;5.874;2022-08-24T01:07:41;21.50;99.90
11532;DHT22;5822;51.000;5.874;2022-08-24T01:10:12;21.60;99.90
11532;DHT22;5822;51.000;5.874;2022-08-24T01:12:42;21.60;99.90
11532;DHT22;5822;51.000;5.874;2022-08-24T01:15:10;21.60;99.90
11532;DHT22;5822;51.000;5.874;2022-08-24T01:17:36;21.60;99.90
11532;DHT22;5822;51.000;5.874;2022-08-24T01:20:21;21.60;99.90
11532;DHT22;5822;51.000;5.874;2022-08-24T01:23:12;21.60;99.90
11532;DHT22;5822;51.000;5.874;2022-08-24T01:25:42;21.40;99.90
11532;DHT22;5822;51.000;5.874;2022-08-24T01:28:17;21.30;99.90
11532;DHT22;5822;51.000;5.874;2022-08-24T01:30:43;21.30;99.90
11532;DHT22;5822;51.000;5.874;2022-08-24T01:33:20;21.30;99.90
11532;DHT22;5822;51.000;5.874;2022-08-24T01:35:46;21.40;99.90
11532;DHT22;5822;51.000;5.874;2022-08-24T01:38:12;21.50;99.90
11532;DHT22;5822;51.000;5.874;2022-08-24T01:40:43;21.40;99.90
11532;DHT22;5822;51.000;5.874;2022-08-24T01:43:11;21.30;99.90
11532;DHT22;5822;51.000;5.874;2022-08-24T01:45:37;21.20;99.90
11532;DHT22;5822;51.000;5.874;2022-08-24T01:48:03;21.20;99.90
11532;DHT22;5822;51.000;5.874;2022-08-24T01:50:29;21.20;99.90
11532;DHT22;5822;51.000;5.874;2022-08-24T01:52:58;21.30;99.90
11532;DHT22;5822;51.000;5.874;2022-08-24T01:55:26;21.30;99.90
11532;DHT22;5822;51.000;5.874;2022-08-24T01:57:51;21.40;99.90
11532;DHT22;5822;51.000;5.874;2022-08-24T02:00:17;21.30;99.90
11532;DHT22;5822;51.000;5.874;2022-08-24T02:02:44;21.20;99.90
11532;DHT22;5822;51.000;5.874;2022-08-24T02:05:11;21.20;99.90
11532;DHT22;5822;51.000;5.874;2022-08-24T02:07:37;21.30;99.90
11532;DHT22;5822;51.000;5.874;2022-08-24T02:10:05;21.20;99.90
11532;DHT22;5822;51.000;5.874;2022-08-24T02:12:32;21.10;99.90
11532;DHT22;5822;51.000;5.874;2022-08-24T02:14:58;21.10;99.90
11532;DHT22;5822;51.000;5.874;2022-08-24T02:17:25;21.00;99.90
11532;DHT22;5822;51.000;5.874;2022-08-24T02:19:50;21.00;99.90
11532;DHT22;5822;51.000;5.874;2022-08-24T02:22:16;21.20;99.90
11532;DHT22;5822;51.000;5.874;2022-08-24T02:24:41;21.20;99.90
11532;DHT22;5822;51.000;5.874;2022-08-24T02:27:07;21.10;99.90
11532;DHT22;5822;51.000;5.874;2022-08-24T02:29:33;21.00;99.90
11532;DHT22;5822;51.000;5.874;2022-08-24T02:31:59;20.90;99.90
11532;DHT22;5822;51.000;5.874;2022-08-24T02:34:24;20.90;99.90
11532;DHT22;5822;51.000;5.874;2022-08-24T02:36:50;20.80;99.90
11532;DHT22;5822;51.000;5.874;2022-08-24T02:39:18;21.00;99.90
11532;DHT22;5822;51.000;5.874;2022-08-24T02:41:44;20.90;99.90
11532;DHT22;5822;51.000;5.874;2022-08-24T02:44:10;20.90;99.90
11532;DHT22;5822;51.000;5.874;2022-08-24T02:46:35;20.80;99.90
11532;DHT22;5822;51.000;5.874;2022-08-24T02:49:01;20.80;99.90
11532;DHT22;5822;51.000;5.874;2022-08-24T02:51:30;20.80;99.90
11532;DHT22;5822;51.000;5.874;2022-08-24T02:53:57;20.80;99.90
11532;DHT22;5822;51.000;5.874;2022-08-24T02:56:23;20.70;99.90
11532;DHT22;5822;51.000;5.874;2022-08-24T02:58:49;20.70;99.90
11532;DHT22;5822;51.000;5.874;2022-08-24T03:01:15;20.70;99.90
11532;DHT22;5822;51.000;5.874;2022-08-24T03:03:42;20.70;99.90
11532;DHT22;5822;51.000;5.874;2022-08-24T03:06:08;20.70;99.90
11532;DHT22;5822;51.000;5.874;2022-08-24T03:08:35;20.70;99.90
11532;DHT22;5822;51.000;5.874;2022-08-24T03:11:01;20.70;99.90
11532;DHT22;5822;51.000;5.874;2022-08-24T03:13:27;20.70;99.90
11532;DHT22;5822;51.000;5.874;2022-08-24T03:15:54;20.70;99.90
11532;DHT22;5822;51.000;5.874;2022-08-24T03:18:21;20.70;99.90
11532;DHT22;5822;51.000;5.874;2022-08-24T03:20:47;20.80;99.90
11532;DHT22;5822;51.000;5.874;2022-08-24T03:23:14;20.70;99.90
11532;DHT22;5822;51.000;5.874;2022-08-24T03:25:40;20.70;99.90
11532;DHT22;5822;51.000;5.874;2022-08-24T03:28:06;20.70;99.90
11532;DHT22;5822;51.000;5.874;2022-08-24T03:30:31;20.70;99.90
11532;DHT22;5822;51.000;5.874;2022-08-24T03:32:57;20.80;99.90
11532;DHT22;5822;51.000;5.874;2022-08-24T03:35:23;20.90;99.90
11532;DHT22;5822;51.000;5.874;2022-08-24T03:37:49;20.80;99.90
11532;DHT22;5822;51.000;5.874;2022-08-24T03:40:16;20.60;99.90
11532;DHT22;5822;51.000;5.874;2022-08-24T03:42:41;20.50;99.90
11532;DHT22;5822;51.000;5.874;2022-08-24T03:45:08;20.50;99.90
11532;DHT22;5822;51.000;5.874;2022-08-24T03:47:34;20.50;99.90
11532;DHT22;5822;51.000;5.874;2022-08-24T03:50:01;20.50;99.90
11532;DHT22;5822;51.000;5.874;2022-08-24T03:52:26;20.50;99.90
11532;DHT22;5822;51.000;5.874;2022-08-24T03:54:52;20.50;99.90
11532;DHT22;5822;51.000;5.874;2022-08-24T03:57:17;20.40;99.90
11532;DHT22;5822;51.000;5.874;2022-08-24T03:59:43;20.50;99.90
11532;DHT22;5822;51.000;5.874;2022-08-24T04:02:09;20.50;99.90
11532;DHT22;5822;51.000;5.874;2022-08-24T04:04:34;20.50;99.90
11532;DHT22;5822;51.000;5.874;2022-08-24T04:07:00;20.40;99.90
11532;DHT22;5822;51.000;5.874;2022-08-24T04:09:26;20.50;99.90
11532;DHT22;5822;51.000;5.874;2022-08-24T04:11:51;20.50;99.90
11532;DHT22;5822;51.000;5.874;2022-08-24T04:14:17;20.60;99.90
11532;DHT22;5822;51.000;5.874;2022-08-24T04:16:43;20.60;99.90
11532;DHT22;5822;51.000;5.874;2022-08-24T04:19:10;20.70;99.90
11532;DHT22;5822;51.000;5.874;2022-08-24T04:21:36;20.70;99.90
11532;DHT22;5822;51.000;5.874;2022-08-24T04:24:04;20.80;99.90
11532;DHT22;5822;51.000;5.874;2022-08-24T04:26:30;20.70;99.90
11532;DHT22;5822;51.000;5.874;2022-08-24T04:28:57;20.40;99.90
11532;DHT22;5822;51.000;5.874;2022-08-24T04:31:24;20.30;99.90
11532;DHT22;5822;51.000;5.874;2022-08-24T04:33:51;20.20;99.90
11532;DHT22;5822;51.000;5.874;2022-08-24T04:36:18;20.30;99.90
11532;DHT22;5822;51.000;5.874;2022-08-24T04:38:46;20.30;99.90
11532;DHT22;5822;51.000;5.874;2022-08-24T04:41:13;20.40;99.90
11532;DHT22;5822;51.000;5.874;2022-08-24T04:43:40;20.40;99.90
11532;DHT22;5822;51.000;5.874;2022-08-24T04:46:11;20.40;99.90
11532;DHT22;5822;51.000;5.874;2022-08-24T04:48:39;20.30;99.90
11532;DHT22;5822;51.000;5.874;2022-08-24T04:51:06;20.20;99.90
11532;DHT22;5822;51.000;5.874;2022-08-24T04:53:33;20.20;99.90
11532;DHT22;5822;51.000;5.874;2022-08-24T04:55:59;20.20;99.90
11532;DHT22;5822;51.000;5.874;2022-08-24T04:58:27;20.10;99.90
11532;DHT22;5822;51.000;5.874;2022-08-24T05:00:52;20.30;99.90
11532;DHT22;5822;51.000;5.874;2022-08-24T05:03:19;20.40;99.90
11532;DHT22;5822;51.000;5.874;2022-08-24T05:05:48;20.50;99.90
11532;DHT22;5822;51.000;5.874;2022-08-24T05:08:16;20.50;99.90
11532;DHT22;5822;51.000;5.874;2022-08-24T05:10:43;20.50;99.90
11532;DHT22;5822;51.000;5.874;2022-08-24T05:13:09;20.30;99.90
11532;DHT22;5822;51.000;5.874;2022-08-24T05:15:40;20.20;99.90
11532;DHT22;5822;51.000;5.874;2022-08-24T05:18:06;20.30;99.90
11532;DHT22;5822;51.000;5.874;2022-08-24T05:20:32;20.30;99.90
11532;DHT22;5822;51.000;5.874;2022-08-24T05:22:58;20.30;99.90
11532;DHT22;5822;51.000;5.874;2022-08-24T05:25:23;20.30;99.90
11532;DHT22;5822;51.000;5.874;2022-08-24T05:27:49;20.20;99.90
11532;DHT22;5822;51.000;5.874;2022-08-24T05:30:15;20.30;99.90
11532;DHT22;5822;51.000;5.874;2022-08-24T05:32:41;20.30;99.90
11532;DHT22;5822;51.000;5.874;2022-08-24T05:35:07;20.20;99.90
11532;DHT22;5822;51.000;5.874;2022-08-24T05:37:37;20.20;99.90
11532;DHT22;5822;51.000;5.874;2022-08-24T05:40:05;20.20;99.90
11532;DHT22;5822;51.000;5.874;2022-08-24T05:42:30;20.20;99.90
11532;DHT22;5822;51.000;5.874;2022-08-24T05:44:56;20.10;99.90
11532;DHT22;5822;51.000;5.874;2022-08-24T05:47:23;20.20;99.90
11532;DHT22;5822;51.000;5.874;2022-08-24T05:49:48;20.30;99.90
11532;DHT22;5822;51.000;5.874;2022-08-24T05:52:18;20.40;99.90
11532;DHT22;5822;51.000;5.874;2022-08-24T05:54:44;20.30;99.90
11532;DHT22;5822;51.000;5.874;2022-08-24T05:57:10;20.40;99.90
11532;DHT22;5822;51.000;5.874;2022-08-24T05:59:35;20.40;99.90
11532;DHT22;5822;51.000;5.874;2022-08-24T06:02:02;20.30;99.90
11532;DHT22;5822;51.000;5.874;2022-08-24T06:04:28;20.30;99.90
11532;DHT22;5822;51.000;5.874;2022-08-24T06:06:54;20.40;99.90
11532;DHT22;5822;51.000;5.874;2022-08-24T06:09:19;20.40;99.90
11532;DHT22;5822;51.000;5.874;2022-08-24T06:11:46;20.50;99.90
11532;DHT22;5822;51.000;5.874;2022-08-24T06:14:15;20.50;99.90
11532;DHT22;5822;51.000;5.874;2022-08-24T06:16:44;20.50;99.90
11532;DHT22;5822;51.000;5.874;2022-08-24T06:19:11;20.70;99.90
11532;DHT22;5822;51.000;5.874;2022-08-24T06:21:38;20.70;99.90
11532;DHT22;5822;51.000;5.874;2022-08-24T06:24:04;20.80;99.90
11532;DHT22;5822;51.000;5.874;2022-08-24T06:26:30;20.90;99.90
11532;DHT22;5822;51.000;5.874;2022-08-24T06:29:14;21.00;99.90
11532;DHT22;5822;51.000;5.874;2022-08-24T06:31:43;21.00;99.90
11532;DHT22;5822;51.000;5.874;2022-08-24T06:34:13;21.10;99.90
11532;DHT22;5822;51.000;5.874;2022-08-24T06:36:39;21.10;99.90
11532;DHT22;5822;51.000;5.874;2022-08-24T06:39:06;21.10;99.90
11532;DHT22;5822;51.000;5.874;2022-08-24T06:41:32;21.10;99.90
11532;DHT22;5822;51.000;5.874;2022-08-24T06:43:58;21.10;99.90
11532;DHT22;5822;51.000;5.874;2022-08-24T06:46:24;21.20;99.90
11532;DHT22;5822;51.000;5.874;2022-08-24T06:48:49;21.20;99.90
11532;DHT22;5822;51.000;5.874;2022-08-24T06:51:17;21.20;99.90
11532;DHT22;5822;51.000;5.874;2022-08-24T06:53:44;21.30;99.90
11532;DHT22;5822;51.000;5.874;2022-08-24T06:56:10;21.30;99.90
11532;DHT22;5822;51.000;5.874;2022-08-24T06:58:36;21.30;99.90
11532;DHT22;5822;51.000;5.874;2022-08-24T07:01:17;21.30;99.90
11532;DHT22;5822;51.000;5.874;2022-08-24T07:03:44;21.30;99.90
11532;DHT22;5822;51.000;5.874;2022-08-24T07:06:10;21.30;99.90
11532;DHT22;5822;51.000;5.874;2022-08-24T07:08:37;21.30;99.90
11532;DHT22;5822;51.000;5.874;2022-08-24T07:11:04;21.30;99.90
11532;DHT22;5822;51.000;5.874;2022-08-24T07:13:30;21.40;99.90
11532;DHT22;5822;51.000;5.874;2022-08-24T07:15:56;21.40;99.90
11532;DHT22;5822;51.000;5.874;2022-08-24T07:18:22;21.40;99.90
11532;DHT22;5822;51.000;5.874;2022-08-24T07:20:49;21.40;99.90
11532;DHT22;5822;51.000;5.874;2022-08-24T07:23:15;21.40;99.90
11532;DHT22;5822;51.000;5.874;2022-08-24T07:25:43;21.40;99.90
11532;DHT22;5822;51.000;5.874;2022-08-24T07:28:10;21.50;99.90
11532;DHT22;5822;51.000;5.874;2022-08-24T07:30:37;21.50;99.90
11532;DHT22;5822;51.000;5.874;2022-08-24T07:33:03;21.50;99.90
11532;DHT22;5822;51.000;5.874;2022-08-24T07:35:31;21.50;99.90
11532;DHT22;5822;51.000;5.874;2022-08-24T07:37:57;21.50;99.90
11532;DHT22;5822;51.000;5.874;2022-08-24T07:40:24;21.60;99.90
11532;DHT22;5822;51.000;5.874;2022-08-24T07:42:52;21.60;99.90
11532;DHT22;5822;51.000;5.874;2022-08-24T07:45:19;21.60;99.90
11532;DHT22;5822;51.000;5.874;2022-08-24T07:47:45;21.60;99.90
11532;DHT22;5822;51.000;5.874;2022-08-24T07:50:15;21.60;99.90
11532;DHT22;5822;51.000;5.874;2022-08-24T07:52:42;21.60;99.90
11532;DHT22;5822;51.000;5.874;2022-08-24T07:55:08;21.60;99.90
11532;DHT22;5822;51.000;5.874;2022-08-24T07:57:34;21.60;99.90
11532;DHT22;5822;51.000;5.874;2022-08-24T08:00:05;21.60;99.90
11532;DHT22;5822;51.000;5.874;2022-08-24T08:02:31;21.50;99.90
11532;DHT22;5822;51.000;5.874;2022-08-24T08:04:59;21.50;99.90
11532;DHT22;5822;51.000;5.874;2022-08-24T08:07:25;21.60;99.90
11532;DHT22;5822;51.000;5.874;2022-08-24T08:09:51;21.60;99.90
11532;DHT22;5822;51.000;5.874;2022-08-24T08:12:17;21.50;99.90
11532;DHT22;5822;51.000;5.874;2022-08-24T08:14:44;21.50;99.90
11532;DHT22;5822;51.000;5.874;2022-08-24T08:17:10;21.50;99.90
11532;DHT22;5822;51.000;5.874;2022-08-24T08:19:37;21.50;99.90
11532;DHT22;5822;51.000;5.874;2022-08-24T08:22:03;21.50;99.90
11532;DHT22;5822;51.000;5.874;2022-08-24T08:24:57;21.50;99.90
11532;DHT22;5822;51.000;5.874;2022-08-24T08:27:23;21.50;99.90
11532;DHT22;5822;51.000;5.874;2022-08-24T08:29:49;21.50;99.90
11532;DHT22;5822;51.000;5.874;2022-08-24T08:32:15;21.50;99.90
11532;DHT22;5822;51.000;5.874;2022-08-24T08:34:42;21.60;99.90
11532;DHT22;5822;51.000;5.874;2022-08-24T08:37:09;21.60;99.90
11532;DHT22;5822;51.000;5.874;2022-08-24T08:39:35;21.60;99.90
11532;DHT22;5822;51.000;5.874;2022-08-24T08:50:32;21.60;99.90
11532;DHT22;5822;51.000;5.874;2022-08-24T08:56:08;21.60;99.90
11532;DHT22;5822;51.000;5.874;2022-08-24T08:59:00;21.60;99.90
11532;DHT22;5822;51.000;5.874;2022-08-24T09:18:35;21.70;99.90
11532;DHT22;5822;51.000;5.874;2022-08-24T09:21:18;21.70;99.90
11532;DHT22;5822;51.000;5.874;2022-08-24T09:30:13;21.80;99.90
11532;DHT22;5822;51.000;5.874;2022-08-24T09:33:07;21.80;99.90
11532;DHT22;5822;51.000;5.874;2022-08-24T09:49:49;21.80;99.90
11532;DHT22;5822;51.000;5.874;2022-08-24T10:01:03;21.70;99.90
11532;DHT22;5822;51.000;5.874;2022-08-24T10:03:52;21.70;99.90
11532;DHT22;5822;51.000;5.874;2022-08-24T10:12:20;21.70;99.90
11532;DHT22;5822;51.000;5.874;2022-08-24T10:17:48;21.70;99.90
11532;DHT22;5822;51.000;5.874;2022-08-24T10:25:52;21.70;99.90
11532;DHT22;5822;51.000;5.874;2022-08-24T10:31:38;21.70;99.90
11532;DHT22;5822;51.000;5.874;2022-08-24T10:48:06;21.80;99.90
11532;DHT22;5822;51.000;5.874;2022-08-24T10:53:52;21.80;99.90
11532;DHT22;5822;51.000;5.874;2022-08-24T11:02:31;21.80;99.90
11532;DHT22;5822;51.000;5.874;2022-08-24T11:05:04;21.80;99.90
11532;DHT22;5822;51.000;5.874;2022-08-24T11:07:30;21.80;99.90
11532;DHT22;5822;51.000;5.874;2022-08-24T11:10:03;21.80;99.90
11532;DHT22;5822;51.000;5.874;2022-08-24T11:12:42;21.80;99.90
11532;DHT22;5822;51.000;5.874;2022-08-24T11:15:26;21.80;99.90
11532;DHT22;5822;51.000;5.874;2022-08-24T11:17:56;21.80;99.90
11532;DHT22;5822;51.000;5.874;2022-08-24T11:20:39;21.80;99.90
11532;DHT22;5822;51.000;5.874;2022-08-24T11:26:03;21.80;99.90
11532;DHT22;5822;51.000;5.874;2022-08-24T11:29:05;21.80;99.90
11532;DHT22;5822;51.000;5.874;2022-08-24T11:34:03;21.80;99.90
11532;DHT22;5822;51.000;5.874;2022-08-24T11:36:34;21.80;99.90
11532;DHT22;5822;51.000;5.874;2022-08-24T11:41:57;21.80;99.90
11532;DHT22;5822;51.000;5.874;2022-08-24T11:44:58;21.80;99.90
11532;DHT22;5822;51.000;5.874;2022-08-24T11:55:23;21.80;99.90
11532;DHT22;5822;51.000;5.874;2022-08-24T12:00:46;21.80;99.90
11532;DHT22;5822;51.000;5.874;2022-08-24T12:03:41;21.80;99.90
11532;DHT22;5822;51.000;5.874;2022-08-24T12:06:29;21.80;99.90
11532;DHT22;5822;51.000;5.874;2022-08-24T12:11:49;21.80;99.90
11532;DHT22;5822;51.000;5.874;2022-08-24T12:17:04;21.80;99.90
11532;DHT22;5822;51.000;5.874;2022-08-24T12:19:36;21.80;99.90
11532;DHT22;5822;51.000;5.874;2022-08-24T12:22:06;21.80;99.90
11532;DHT22;5822;51.000;5.874;2022-08-24T12:24:38;21.80;99.90
11532;DHT22;5822;51.000;5.874;2022-08-24T12:38:13;21.80;99.90
11532;DHT22;5822;51.000;5.874;2022-08-24T12:40:55;21.80;99.90
11532;DHT22;5822;51.000;5.874;2022-08-24T12:43:22;21.90;99.90
11532;DHT22;5822;51.000;5.874;2022-08-24T12:45:50;21.90;99.90
11532;DHT22;5822;51.000;5.874;2022-08-24T12:48:36;21.90;99.90
11532;DHT22;5822;51.000;5.874;2022-08-24T12:57:07;21.90;99.90
11532;DHT22;5822;51.000;5.874;2022-08-24T13:23:21;22.10;99.90
11532;DHT22;5822;51.000;5.874;2022-08-24T13:25:59;22.10;99.90
11532;DHT22;5822;51.000;5.874;2022-08-24T13:28:45;22.10;99.90
11532;DHT22;5822;51.000;5.874;2022-08-24T13:31:33;22.10;99.90
11532;DHT22;5822;51.000;5.874;2022-08-24T13:36:45;22.30;99.90
11532;DHT22;5822;51.000;5.874;2022-08-24T13:39:19;22.40;99.90
11532;DHT22;5822;51.000;5.874;2022-08-24T13:47:48;22.60;99.90
11532;DHT22;5822;51.000;5.874;2022-08-24T13:50:45;22.60;99.90
11532;DHT22;5822;51.000;5.874;2022-08-24T13:59:15;22.60;99.90
11532;DHT22;5822;51.000;5.874;2022-08-24T14:02:28;22.60;99.90
11532;DHT22;5822;51.000;5.874;2022-08-24T14:05:00;22.60;99.90
11532;DHT22;5822;51.000;5.874;2022-08-24T14:19:30;22.80;99.90
11532;DHT22;5822;51.000;5.874;2022-08-24T14:24:50;22.80;99.90
11532;DHT22;5822;51.000;5.874;2022-08-24T14:33:04;22.90;99.90
11532;DHT22;5822;51.000;5.874;2022-08-24T14:46:54;23.00;99.90
11532;DHT22;5822;51.000;5.874;2022-08-24T14:50:16;23.00;99.90
11532;DHT22;5822;51.000;5.874;2022-08-24T14:52:46;23.00;99.90
11532;DHT22;5822;51.000;5.874;2022-08-24T14:58:23;23.00;99.90
11532;DHT22;5822;51.000;5.874;2022-08-24T15:04:00;23.00;99.90
11532;DHT22;5822;51.000;5.874;2022-08-24T15:06:44;23.00;99.90
11532;DHT22;5822;51.000;5.874;2022-08-24T15:09:26;23.00;99.90
11532;DHT22;5822;51.000;5.874;2022-08-24T15:11:58;23.00;99.90
11532;DHT22;5822;51.000;5.874;2022-08-24T15:17:12;23.00;99.90
11532;DHT22;5822;51.000;5.874;2022-08-24T15:20:06;23.00;99.90
11532;DHT22;5822;51.000;5.874;2022-08-24T15:22:41;23.00;99.90
11532;DHT22;5822;51.000;5.874;2022-08-24T15:28:23;23.10;99.90
11532;DHT22;5822;51.000;5.874;2022-08-24T15:31:05;23.10;99.90
11532;DHT22;5822;51.000;5.874;2022-08-24T15:33:32;23.00;99.90
11532;DHT22;5822;51.000;5.874;2022-08-24T15:36:08;23.00;99.90
11532;DHT22;5822;51.000;5.874;2022-08-24T15:38:37;23.10;99.90
11532;DHT22;5822;51.000;5.874;2022-08-24T15:46:21;23.00;99.90
11532;DHT22;5822;51.000;5.874;2022-08-24T15:48:48;23.00;99.90
11532;DHT22;5822;51.000;5.874;2022-08-24T15:57:03;23.00;99.90
11532;DHT22;5822;51.000;5.874;2022-08-24T16:04:50;22.80;99.90
11532;DHT22;5822;51.000;5.874;2022-08-24T16:07:24;22.80;99.90
11532;DHT22;5822;51.000;5.874;2022-08-24T16:10:06;22.80;99.90
11532;DHT22;5822;51.000;5.874;2022-08-24T16:12:33;22.80;99.90
11532;DHT22;5822;51.000;5.874;2022-08-24T16:15:19;22.80;99.90
11532;DHT22;5822;51.000;5.874;2022-08-24T16:17:50;22.80;99.90
11532;DHT22;5822;51.000;5.874;2022-08-24T16:20:30;22.80;99.90
11532;DHT22;5822;51.000;5.874;2022-08-24T16:23:00;22.80;99.90
11532;DHT22;5822;51.000;5.874;2022-08-24T16:25:39;22.80;99.90
11532;DHT22;5822;51.000;5.874;2022-08-24T16:28:07;22.70;99.90
11532;DHT22;5822;51.000;5.874;2022-08-24T16:30:52;22.70;99.90
11532;DHT22;5822;51.000;5.874;2022-08-24T16:35:57;22.60;99.90
11532;DHT22;5822;51.000;5.874;2022-08-24T16:38:24;22.60;99.90
11532;DHT22;5822;51.000;5.874;2022-08-24T16:40:50;22.60;99.90
11532;DHT22;5822;51.000;5.874;2022-08-24T16:43:16;22.60;99.90
11532;DHT22;5822;51.000;5.874;2022-08-24T16:45:41;22.60;99.90
11532;DHT22;5822;51.000;5.874;2022-08-24T16:48:10;22.60;99.90
11532;DHT22;5822;51.000;5.874;2022-08-24T16:50:35;22.60;99.90
11532;DHT22;5822;51.000;5.874;2022-08-24T16:53:01;22.60;99.90
11532;DHT22;5822;51.000;5.874;2022-08-24T16:55:26;22.60;99.90
11532;DHT22;5822;51.000;5.874;2022-08-24T16:57:53;22.60;99.90
11532;DHT22;5822;51.000;5.874;2022-08-24T17:00:20;22.60;99.90
11532;DHT22;5822;51.000;5.874;2022-08-24T17:02:47;22.60;99.90
11532;DHT22;5822;51.000;5.874;2022-08-24T17:05:14;22.60;99.90
11532;DHT22;5822;51.000;5.874;2022-08-24T17:07:40;22.60;99.90
11532;DHT22;5822;51.000;5.874;2022-08-24T17:10:08;22.60;99.90
11532;DHT22;5822;51.000;5.874;2022-08-24T17:12:35;22.50;99.90
11532;DHT22;5822;51.000;5.874;2022-08-24T17:15:06;22.50;99.90
11532;DHT22;5822;51.000;5.874;2022-08-24T17:17:32;22.50;99.90
11532;DHT22;5822;51.000;5.874;2022-08-24T17:19:58;22.50;99.90
11532;DHT22;5822;51.000;5.874;2022-08-24T17:22:24;22.50;99.90
11532;DHT22;5822;51.000;5.874;2022-08-24T17:24:50;22.50;99.90
11532;DHT22;5822;51.000;5.874;2022-08-24T17:27:17;22.50;99.90
11532;DHT22;5822;51.000;5.874;2022-08-24T17:29:44;22.50;99.90
11532;DHT22;5822;51.000;5.874;2022-08-24T17:32:10;22.50;99.90
11532;DHT22;5822;51.000;5.874;2022-08-24T17:34:37;22.50;99.90
11532;DHT22;5822;51.000;5.874;2022-08-24T17:37:03;22.50;99.90
11532;DHT22;5822;51.000;5.874;2022-08-24T17:39:29;22.50;99.90
11532;DHT22;5822;51.000;5.874;2022-08-24T17:41:56;22.50;99.90
11532;DHT22;5822;51.000;5.874;2022-08-24T17:44:25;22.50;99.90
11532;DHT22;5822;51.000;5.874;2022-08-24T17:46:53;22.50;99.90
11532;DHT22;5822;51.000;5.874;2022-08-24T17:49:19;22.50;99.90
11532;DHT22;5822;51.000;5.874;2022-08-24T17:51:45;22.50;99.90
11532;DHT22;5822;51.000;5.874;2022-08-24T17:54:11;22.40;99.90
11532;DHT22;5822;51.000;5.874;2022-08-24T17:56:37;22.50;99.90
11532;DHT22;5822;51.000;5.874;2022-08-24T17:59:08;22.40;99.90
11532;DHT22;5822;51.000;5.874;2022-08-24T18:01:51;22.40;99.90
11532;DHT22;5822;51.000;5.874;2022-08-24T18:04:18;22.40;99.90
11532;DHT22;5822;51.000;5.874;2022-08-24T18:06:45;22.40;99.90
11532;DHT22;5822;51.000;5.874;2022-08-24T18:09:16;22.40;99.90
11532;DHT22;5822;51.000;5.874;2022-08-24T18:11:42;22.40;99.90
11532;DHT22;5822;51.000;5.874;2022-08-24T18:14:07;22.40;99.90
11532;DHT22;5822;51.000;5.874;2022-08-24T18:16:33;22.40;99.90
11532;DHT22;5822;51.000;5.874;2022-08-24T18:18:59;22.40;99.90
11532;DHT22;5822;51.000;5.874;2022-08-24T18:21:25;22.40;99.90
11532;DHT22;5822;51.000;5.874;2022-08-24T18:23:51;22.40;99.90
11532;DHT22;5822;51.000;5.874;2022-08-24T18:26:22;22.40;99.90
11532;DHT22;5822;51.000;5.874;2022-08-24T18:28:48;22.40;99.90
11532;DHT22;5822;51.000;5.874;2022-08-24T18:31:14;22.40;99.90
11532;DHT22;5822;51.000;5.874;2022-08-24T18:33:40;22.40;99.90
11532;DHT22;5822;51.000;5.874;2022-08-24T18:36:06;22.40;99.90
11532;DHT22;5822;51.000;5.874;2022-08-24T18:38:32;22.40;99.90
11532;DHT22;5822;51.000;5.874;2022-08-24T18:40:59;22.40;99.90
11532;DHT22;5822;51.000;5.874;2022-08-24T18:43:25;22.40;99.90
11532;DHT22;5822;51.000;5.874;2022-08-24T18:45:51;22.40;99.90
11532;DHT22;5822;51.000;5.874;2022-08-24T18:48:17;22.40;99.90
11532;DHT22;5822;51.000;5.874;2022-08-24T18:50:43;22.40;99.90
11532;DHT22;5822;51.000;5.874;2022-08-24T18:53:09;22.40;99.90
11532;DHT22;5822;51.000;5.874;2022-08-24T18:55:37;22.40;99.90
11532;DHT22;5822;51.000;5.874;2022-08-24T18:58:03;22.40;99.90
11532;DHT22;5822;51.000;5.874;2022-08-24T19:00:30;22.40;99.90
11532;DHT22;5822;51.000;5.874;2022-08-24T19:02:58;22.30;99.90
11532;DHT22;5822;51.000;5.874;2022-08-24T19:05:25;22.40;99.90
11532;DHT22;5822;51.000;5.874;2022-08-24T19:07:52;22.30;99.90
11532;DHT22;5822;51.000;5.874;2022-08-24T19:10:21;22.30;99.90
11532;DHT22;5822;51.000;5.874;2022-08-24T19:12:51;22.30;99.90
11532;DHT22;5822;51.000;5.874;2022-08-24T19:15:19;22.30;99.90
11532;DHT22;5822;51.000;5.874;2022-08-24T19:17:45;22.30;99.90
11532;DHT22;5822;51.000;5.874;2022-08-24T19:20:11;22.30;99.90
11532;DHT22;5822;51.000;5.874;2022-08-24T19:22:38;22.30;99.90
11532;DHT22;5822;51.000;5.874;2022-08-24T19:25:05;22.30;99.90
11532;DHT22;5822;51.000;5.874;2022-08-24T19:27:32;22.30;99.90
11532;DHT22;5822;51.000;5.874;2022-08-24T19:29:58;22.30;99.90
11532;DHT22;5822;51.000;5.874;2022-08-24T19:32:28;22.30;99.90
11532;DHT22;5822;51.000;5.874;2022-08-24T19:34:56;22.30;99.90
11532;DHT22;5822;51.000;5.874;2022-08-24T19:37:22;22.30;99.90
11532;DHT22;5822;51.000;5.874;2022-08-24T19:39:48;22.30;99.90
11532;DHT22;5822;51.000;5.874;2022-08-24T19:42:15;22.30;99.90
11532;DHT22;5822;51.000;5.874;2022-08-24T19:44:41;22.30;99.90
11532;DHT22;5822;51.000;5.874;2022-08-24T19:47:25;22.30;99.90
11532;DHT22;5822;51.000;5.874;2022-08-24T19:49:51;22.30;99.90
11532;DHT22;5822;51.000;5.874;2022-08-24T19:52:17;22.30;99.90
11532;DHT22;5822;51.000;5.874;2022-08-24T19:54:45;22.30;99.90
11532;DHT22;5822;51.000;5.874;2022-08-24T19:59:50;22.30;99.90
11532;DHT22;5822;51.000;5.874;2022-08-24T20:02:16;22.30;99.90